sensor_id;sensor_type;location;lat;lon;timestamp;pressure;altitude;pressure_sealevel;temperature;humidity
65151;BME280;51918;51.856;0.150;2023-04-01T00:02:49;98861.50;;;9.79;100.00
65151;BME280;51918;51.856;0.150;2023-04-01T00:07:50;98877.69;;;9.86;100.00
65151;BME280;51918;51.856;0.150;2023-04-01T00:12:50;98872.94;;;9.83;100.00
65151;BME280;51918;51.856;0.150;2023-04-01T00:17:52;98887.34;;;9.71;100.00
65151;BME280;51918;51.856;0.150;2023-04-01T00:22:53;98887.16;;;9.73;100.00
65151;BME280;51918;51.856;0.150;2023-04-01T00:27:54;98890.31;;;9.68;100.00
65151;BME280;51918;51.856;0.150;2023-04-01T00:32:56;98904.56;;;9.84;100.00
65151;BME280;51918;51.856;0.150;2023-04-01T00:37:56;98912.06;;;9.79;100.00
65151;BME280;51918;51.856;0.150;2023-04-01T00:42:57;98922.72;;;9.82;100.00
65151;BME280;51918;51.856;0.150;2023-04-01T00:48:02;98923.91;;;9.86;100.00
65151;BME280;51918;51.856;0.150;2023-04-01T00:53:05;98930.25;;;9.91;100.00
65151;BME280;51918;51.856;0.150;2023-04-01T00:58:09;98928.06;;;9.81;100.00
65151;BME280;51918;51.856;0.150;2023-04-01T01:03:13;98945.66;;;9.84;100.00
65151;BME280;51918;51.856;0.150;2023-04-01T01:08:17;98940.50;;;9.77;100.00
65151;BME280;51918;51.856;0.150;2023-04-01T01:13:27;98949.94;;;9.70;100.00
65151;BME280;51918;51.856;0.150;2023-04-01T01:18:36;98961.78;;;9.58;100.00
65151;BME280;51918;51.856;0.150;2023-04-01T01:24:09;98972.63;;;9.53;100.00
65151;BME280;51918;51.856;0.150;2023-04-01T01:29:32;98974.81;;;9.56;100.00
65151;BME280;51918;51.856;0.150;2023-04-01T01:34:38;98967.50;;;9.53;100.00
65151;BME280;51918;51.856;0.150;2023-04-01T01:39:44;98982.50;;;9.56;100.00
65151;BME280;51918;51.856;0.150;2023-04-01T01:44:48;98986.59;;;9.44;100.00
65151;BME280;51918;51.856;0.150;2023-04-01T01:49:51;98997.63;;;9.38;100.00
65151;BME280;51918;51.856;0.150;2023-04-01T01:54:56;98994.69;;;9.34;100.00
65151;BME280;51918;51.856;0.150;2023-04-01T02:00:00;99007.47;;;9.27;100.00
65151;BME280;51918;51.856;0.150;2023-04-01T02:05:03;99022.50;;;9.37;100.00
65151;BME280;51918;51.856;0.150;2023-04-01T02:10:07;99028.00;;;9.27;100.00
65151;BME280;51918;51.856;0.150;2023-04-01T02:15:10;99036.69;;;9.33;100.00
65151;BME280;51918;51.856;0.150;2023-04-01T02:20:14;99046.56;;;9.30;100.00
65151;BME280;51918;51.856;0.150;2023-04-01T02:25:18;99047.78;;;9.34;100.00
65151;BME280;51918;51.856;0.150;2023-04-01T02:30:20;99064.50;;;9.23;100.00
65151;BME280;51918;51.856;0.150;2023-04-01T02:35:22;99057.75;;;9.22;100.00
65151;BME280;51918;51.856;0.150;2023-04-01T02:40:24;99065.44;;;9.15;100.00
65151;BME280;51918;51.856;0.150;2023-04-01T02:45:24;99062.91;;;9.22;100.00
65151;BME280;51918;51.856;0.150;2023-04-01T02:50:25;99059.50;;;9.15;100.00
65151;BME280;51918;51.856;0.150;2023-04-01T02:55:27;99069.03;;;9.21;100.00
65151;BME280;51918;51.856;0.150;2023-04-01T03:00:28;99069.03;;;9.21;100.00
65151;BME280;51918;51.856;0.150;2023-04-01T03:05:29;99080.25;;;9.20;100.00
65151;BME280;51918;51.856;0.150;2023-04-01T03:10:31;99086.78;;;9.22;100.00
65151;BME280;51918;51.856;0.150;2023-04-01T03:15:31;99095.88;;;9.25;100.00
65151;BME280;51918;51.856;0.150;2023-04-01T03:20:32;99093.06;;;9.20;100.00
65151;BME280;51918;51.856;0.150;2023-04-01T03:25:34;99112.94;;;9.11;100.00
65151;BME280;51918;51.856;0.150;2023-04-01T03:30:34;99117.47;;;9.09;100.00
65151;BME280;51918;51.856;0.150;2023-04-01T03:35:35;99109.72;;;9.02;100.00
65151;BME280;51918;51.856;0.150;2023-04-01T03:40:37;99120.13;;;8.94;100.00
65151;BME280;51918;51.856;0.150;2023-04-01T03:45:44;99120.38;;;8.99;100.00
65151;BME280;51918;51.856;0.150;2023-04-01T03:50:44;99124.16;;;9.03;100.00
65151;BME280;51918;51.856;0.150;2023-04-01T03:55:46;99132.44;;;9.05;100.00
65151;BME280;51918;51.856;0.150;2023-04-01T04:00:47;99145.63;;;9.02;100.00
65151;BME280;51918;51.856;0.150;2023-04-01T04:05:48;99136.28;;;8.95;100.00
65151;BME280;51918;51.856;0.150;2023-04-01T04:10:55;99148.88;;;8.90;100.00
65151;BME280;51918;51.856;0.150;2023-04-01T04:15:56;99166.06;;;8.89;100.00
65151;BME280;51918;51.856;0.150;2023-04-01T04:20:57;99168.97;;;8.86;100.00
65151;BME280;51918;51.856;0.150;2023-04-01T04:26:01;99179.06;;;8.88;100.00
65151;BME280;51918;51.856;0.150;2023-04-01T04:31:03;99179.47;;;8.70;100.00
65151;BME280;51918;51.856;0.150;2023-04-01T04:36:04;99191.41;;;8.62;100.00
65151;BME280;51918;51.856;0.150;2023-04-01T04:41:09;99187.28;;;8.61;100.00
65151;BME280;51918;51.856;0.150;2023-04-01T04:46:10;99199.63;;;8.73;100.00
65151;BME280;51918;51.856;0.150;2023-04-01T04:51:13;99201.22;;;8.74;100.00
65151;BME280;51918;51.856;0.150;2023-04-01T04:56:18;99215.88;;;8.80;100.00
65151;BME280;51918;51.856;0.150;2023-04-01T05:01:19;99218.56;;;8.72;100.00
65151;BME280;51918;51.856;0.150;2023-04-01T05:06:20;99225.63;;;8.70;100.00
65151;BME280;51918;51.856;0.150;2023-04-01T05:11:22;99228.44;;;8.75;100.00
65151;BME280;51918;51.856;0.150;2023-04-01T05:16:23;99233.94;;;8.72;100.00
65151;BME280;51918;51.856;0.150;2023-04-01T05:21:24;99237.84;;;8.68;100.00
65151;BME280;51918;51.856;0.150;2023-04-01T05:26:26;99248.44;;;8.64;100.00
65151;BME280;51918;51.856;0.150;2023-04-01T05:31:26;99255.09;;;8.59;100.00
65151;BME280;51918;51.856;0.150;2023-04-01T05:36:27;99267.47;;;8.55;100.00
65151;BME280;51918;51.856;0.150;2023-04-01T05:41:29;99264.88;;;8.55;100.00
65151;BME280;51918;51.856;0.150;2023-04-01T05:46:30;99272.94;;;8.52;100.00
65151;BME280;51918;51.856;0.150;2023-04-01T05:51:31;99289.38;;;8.58;100.00
65151;BME280;51918;51.856;0.150;2023-04-01T05:56:33;99287.00;;;8.56;100.00
65151;BME280;51918;51.856;0.150;2023-04-01T06:01:33;99297.75;;;8.52;100.00
65151;BME280;51918;51.856;0.150;2023-04-01T06:06:34;99306.88;;;8.54;100.00
65151;BME280;51918;51.856;0.150;2023-04-01T06:11:45;99309.09;;;8.57;100.00
65151;BME280;51918;51.856;0.150;2023-04-01T06:17:00;99315.19;;;8.56;100.00
65151;BME280;51918;51.856;0.150;2023-04-01T06:22:31;99317.06;;;8.48;100.00
65151;BME280;51918;51.856;0.150;2023-04-01T06:27:50;99317.22;;;8.46;100.00
65151;BME280;51918;51.856;0.150;2023-04-01T06:33:20;99328.88;;;8.34;100.00
65151;BME280;51918;51.856;0.150;2023-04-01T06:38:35;99328.19;;;8.40;100.00
65151;BME280;51918;51.856;0.150;2023-04-01T06:43:50;99334.63;;;8.51;100.00
65151;BME280;51918;51.856;0.150;2023-04-01T06:49:04;99340.91;;;8.48;100.00
65151;BME280;51918;51.856;0.150;2023-04-01T06:54:10;99346.91;;;8.40;100.00
65151;BME280;51918;51.856;0.150;2023-04-01T06:59:16;99358.56;;;8.43;100.00
65151;BME280;51918;51.856;0.150;2023-04-01T07:04:20;99364.59;;;8.50;100.00
65151;BME280;51918;51.856;0.150;2023-04-01T07:09:26;99369.97;;;8.55;100.00
65151;BME280;51918;51.856;0.150;2023-04-01T07:14:32;99382.78;;;8.55;100.00
65151;BME280;51918;51.856;0.150;2023-04-01T07:19:39;99389.53;;;8.56;100.00
65151;BME280;51918;51.856;0.150;2023-04-01T07:24:44;99393.13;;;8.47;100.00
65151;BME280;51918;51.856;0.150;2023-04-01T07:29:47;99396.94;;;8.51;100.00
65151;BME280;51918;51.856;0.150;2023-04-01T07:34:56;99404.53;;;8.44;100.00
